Aérodrome :
LOGIN :

S'inscrire | Disclaimer

   EN    FR    IT 

 










Légende :    VFR   VFR Marginal   IFR   IFR Intensif   IFR Très Intensif
Visi : 
Plafond : 
>= 8 km
>= 3000ft
5 à 8 km
1000 à 3000 ft
1500m à 5 km
500 à 1000 ft
800 à 1500m
200 à 500 ft
< 800m
< 200 ft
Symboles :   Orages  Brouillard  Fortes neiges  Fortes précipitations  Vent > 20 kt
SIGMETs :   Divers  Orages  Givrage  Turbulence  Onde Orograph.  Cendres Volcan.







- Altitude de l'aérodrome : 885 ft
- Code IATA : BAS
- Voir les cartes d'approche


LFSB - Bale-Mulhouse

METARs EXPIRÉS :
  • 241430Z 27007KT 230V330 9999 SCT043 SCT053 28/15 Q1017 NOSIG
  • 241400Z 27007KT 240V310 9999 SCT040 SCT053 27/15 Q1018 NOSIG
  • 241330Z 28008KT 210V320 9999 SCT040 SCT053 27/15 Q1018 NOSIG
  • 241300Z 27006KT 210V340 9999 SCT040 BKN050 26/15 Q1018 NOSIG
  • 241230Z 28009KT 230V320 9999 SCT040 BKN053 26/14 Q1019 NOSIG
  • 241200Z 25007KT 190V290 9999 BKN040 BKN053 26/14 Q1019 NOSIG

Prévision TAF périmée.
Météo : +33 3 89 90 31 11
Pas de NOTAMs connus pour ce terrain.



MET'MAP, la Météo Aéronautique d'un coup d'oeil ! - Copyright ORBIFLY Décembre 2007 - Disclaimer

ORBIFLY MET'MAP TEAM :

Programmation & Développement : Alexandra Zaïnal
Conception & Développement : Baudouin d'Aumeries
Co-Programmation & Développement : Marc-Olivier Méhu
Soutien technique & logistique : Manuel Goepfert

Contact : metmap@orbifly.com




SOURCES & CREDITS :

   NOAA